Time;durP1;ratioP1;P1;durP2;ratioP2;P2;SDS_P1;SDS_P2;PMS_P1;PMS_P2;Temp;Humidity;BMP_temperature;BMP_pressure;BME280_temperature;BME280_humidity;BME280_pressure;Samples;Min_cycle;Max_cycle;Signal;HPM_P1;HPM_P2
2023/12/17 00:01:11;;;;;;;7.23;6.23;;;;;;;;;;4995323;28;20208;-28
2023/12/17 00:03:38;;;;;;;7.70;6.33;;;;;;;;;;5008227;28;20207;-29
2023/12/17 00:06:05;;;;;;;8.50;6.30;;;;;;;;;;4997029;28;20438;-29
2023/12/17 00:08:32;;;;;;;8.87;5.80;;;;;;;;;;5009460;28;20233;-28
2023/12/17 00:10:59;;;;;;;8.37;6.37;;;;;;;;;;5018134;28;20234;-26
2023/12/17 00:13:26;;;;;;;8.70;6.03;;;;;;;;;;5006560;28;20199;-28
2023/12/17 00:15:53;;;;;;;9.67;6.50;;;;;;;;;;5004066;28;20225;-28
2023/12/17 00:18:22;;;;;;;7.83;6.03;;;;;;;;;;5013165;28;20213;-26
2023/12/17 00:20:49;;;;;;;7.37;6.20;;;;;;;;;;5001665;28;20203;-27
2023/12/17 00:23:16;;;;;;;6.90;5.60;;;;;;;;;;5004977;28;20211;-26
2023/12/17 00:25:43;;;;;;;11.30;6.50;;;;;;;;;;5009771;28;20231;-29
2023/12/17 00:28:10;;;;;;;9.33;5.77;;;;;;;;;;5011527;28;20223;-29
2023/12/17 00:30:37;;;;;;;7.50;6.00;;;;;;;;;;5008266;28;20211;-28
2023/12/17 00:33:05;;;;;;;7.93;5.83;;;;;;;;;;5013864;28;20222;-27
2023/12/17 00:35:33;;;;;;;8.00;6.30;;;;;;;;;;5006834;28;20228;-28
2023/12/17 00:38:00;;;;;;;8.17;5.77;;;;;;;;;;5008926;28;20313;-28
2023/12/17 00:40:27;;;;;;;8.70;6.23;;;;;;;;;;5019163;28;20222;-26
2023/12/17 00:42:54;;;;;;;10.93;6.53;;;;;;;;;;5017354;28;20211;-27
2023/12/17 00:45:21;;;;;;;8.47;6.93;;;;;;;;;;5000313;28;20226;-29
2023/12/17 00:47:48;;;;;;;8.07;6.00;;;;;;;;;;5005023;28;20231;-28
2023/12/17 00:50:15;;;;;;;8.10;6.07;;;;;;;;;;5006434;28;20612;-30
2023/12/17 00:52:44;;;;;;;6.73;5.27;;;;;;;;;;5010148;28;20210;-29
2023/12/17 00:55:11;;;;;;;7.73;5.40;;;;;;;;;;5022686;28;20265;-29
2023/12/17 00:57:38;;;;;;;7.30;6.03;;;;;;;;;;5023564;28;20673;-26
2023/12/17 01:00:05;;;;;;;6.70;5.67;;;;;;;;;;5003605;28;20216;-26
2023/12/17 01:02:32;;;;;;;8.23;5.93;;;;;;;;;;5009060;28;20211;-28
2023/12/17 01:05:00;;;;;;;9.03;7.13;;;;;;;;;;5005517;28;20235;-28
2023/12/17 01:07:27;;;;;;;8.60;6.97;;;;;;;;;;5009688;28;20207;-28
2023/12/17 01:09:55;;;;;;;8.13;6.43;;;;;;;;;;5024620;28;20223;-29
2023/12/17 01:12:22;;;;;;;7.93;6.40;;;;;;;;;;5007277;28;20203;-27
2023/12/17 01:14:49;;;;;;;7.43;6.40;;;;;;;;;;5007783;28;20227;-27
2023/12/17 01:17:17;;;;;;;8.63;6.87;;;;;;;;;;5017335;28;20222;-27
2023/12/17 01:19:45;;;;;;;9.43;6.53;;;;;;;;;;5007976;28;20589;-29
2023/12/17 01:22:12;;;;;;;9.17;6.60;;;;;;;;;;5003786;28;20219;-27
2023/12/17 01:24:42;;;;;;;10.17;7.20;;;;;;;;;;5028689;28;20230;-30
2023/12/17 01:27:10;;;;;;;10.03;7.50;;;;;;;;;;5015481;28;20290;-28
2023/12/17 01:29:37;;;;;;;9.53;6.57;;;;;;;;;;5002648;28;20234;-27
2023/12/17 01:32:05;;;;;;;9.33;6.87;;;;;;;;;;5004121;28;20226;-28
2023/12/17 01:34:32;;;;;;;9.67;7.27;;;;;;;;;;5006863;28;20689;-26
2023/12/17 01:36:59;;;;;;;10.97;7.60;;;;;;;;;;4998735;28;20211;-30
2023/12/17 01:39:26;;;;;;;8.90;6.67;;;;;;;;;;5010697;28;20219;-28
2023/12/17 01:41:53;;;;;;;9.47;6.83;;;;;;;;;;5008408;28;20213;-27
2023/12/17 01:44:22;;;;;;;8.17;6.53;;;;;;;;;;5003651;28;20223;-26
2023/12/17 01:46:49;;;;;;;8.97;6.63;;;;;;;;;;5015187;28;20215;-28
2023/12/17 01:49:16;;;;;;;10.37;6.73;;;;;;;;;;5020255;28;20237;-26
2023/12/17 01:51:44;;;;;;;10.80;7.17;;;;;;;;;;5005717;28;20203;-27
2023/12/17 01:54:11;;;;;;;8.93;7.40;;;;;;;;;;5021041;28;20226;-27
2023/12/17 01:56:38;;;;;;;9.53;6.57;;;;;;;;;;5028220;28;20215;-26
2023/12/17 01:59:05;;;;;;;8.87;6.70;;;;;;;;;;5001590;28;20208;-28
2023/12/17 02:01:34;;;;;;;9.60;7.00;;;;;;;;;;4997196;28;20665;-25
2023/12/17 02:04:01;;;;;;;7.20;6.50;;;;;;;;;;5019201;28;20230;-27
2023/12/17 02:06:28;;;;;;;7.37;6.13;;;;;;;;;;5000827;28;20701;-27
2023/12/17 02:08:55;;;;;;;8.97;6.57;;;;;;;;;;5017331;28;20226;-29
2023/12/17 02:11:23;;;;;;;8.27;6.53;;;;;;;;;;5015340;28;20207;-27
2023/12/17 02:13:50;;;;;;;7.80;6.30;;;;;;;;;;5002537;28;20204;-27
2023/12/17 02:16:17;;;;;;;7.13;5.83;;;;;;;;;;5002355;28;20211;-27
2023/12/17 02:18:45;;;;;;;8.30;6.23;;;;;;;;;;5009850;28;20192;-27
2023/12/17 02:21:12;;;;;;;7.77;5.63;;;;;;;;;;5004227;28;20299;-28
2023/12/17 02:23:41;;;;;;;8.83;6.17;;;;;;;;;;5016122;28;20214;-29
2023/12/17 02:26:08;;;;;;;8.67;6.27;;;;;;;;;;5018449;28;20298;-27
2023/12/17 02:28:35;;;;;;;6.77;5.70;;;;;;;;;;5009296;28;20242;-29
2023/12/17 02:31:02;;;;;;;7.57;5.93;;;;;;;;;;5006547;28;20229;-31
2023/12/17 02:33:29;;;;;;;11.70;6.87;;;;;;;;;;5021406;28;20570;-27
2023/12/17 02:35:56;;;;;;;8.93;6.53;;;;;;;;;;5010546;28;20254;-28
2023/12/17 02:38:23;;;;;;;9.10;6.80;;;;;;;;;;5009305;28;20211;-29
2023/12/17 02:40:52;;;;;;;9.47;6.80;;;;;;;;;;5010639;28;20222;-29
2023/12/17 02:43:19;;;;;;;9.60;6.87;;;;;;;;;;5018466;28;20207;-28
2023/12/17 02:45:46;;;;;;;9.07;6.77;;;;;;;;;;5010388;28;20222;-29
2023/12/17 02:48:13;;;;;;;8.00;5.47;;;;;;;;;;5006886;28;20217;-27
2023/12/17 02:50:40;;;;;;;5.70;5.10;;;;;;;;;;5015863;28;20211;-27
2023/12/17 02:53:07;;;;;;;11.37;6.53;;;;;;;;;;4999098;28;20211;-28
2023/12/17 02:55:35;;;;;;;9.50;6.10;;;;;;;;;;5017706;28;20232;-26
2023/12/17 02:58:05;;;;;;;9.67;6.60;;;;;;;;;;5015671;28;20214;-27
2023/12/17 03:00:34;;;;;;;6.67;5.53;;;;;;;;;;4995684;28;20258;-27
2023/12/17 03:03:01;;;;;;;7.40;6.00;;;;;;;;;;5014931;28;20205;-27
2023/12/17 03:05:28;;;;;;;8.43;5.80;;;;;;;;;;5010912;28;20224;-29
2023/12/17 03:07:55;;;;;;;10.10;5.97;;;;;;;;;;5005950;28;20215;-29
2023/12/17 03:10:22;;;;;;;8.03;5.90;;;;;;;;;;5028924;28;20314;-28
2023/12/17 03:12:50;;;;;;;8.17;5.83;;;;;;;;;;4998453;28;20735;-26
2023/12/17 03:15:18;;;;;;;7.13;6.00;;;;;;;;;;5004409;28;20227;-28
2023/12/17 03:17:45;;;;;;;8.23;5.70;;;;;;;;;;5015550;28;20249;-27
2023/12/17 03:20:12;;;;;;;7.57;5.50;;;;;;;;;;5004812;28;20281;-27
2023/12/17 03:22:39;;;;;;;7.93;6.23;;;;;;;;;;5000766;28;20226;-29
2023/12/17 03:25:06;;;;;;;7.70;6.07;;;;;;;;;;5022463;28;20717;-28
2023/12/17 03:27:33;;;;;;;8.20;5.67;;;;;;;;;;5008724;28;20222;-30
2023/12/17 03:30:01;;;;;;;8.00;6.10;;;;;;;;;;5007640;28;20222;-29
2023/12/17 03:32:29;;;;;;;6.77;5.40;;;;;;;;;;5011476;28;20219;-26
2023/12/17 03:34:56;;;;;;;7.90;5.80;;;;;;;;;;5012726;28;20230;-28
2023/12/17 03:37:23;;;;;;;7.73;5.67;;;;;;;;;;5002350;28;20392;-28
2023/12/17 03:39:51;;;;;;;7.63;5.43;;;;;;;;;;5009438;28;20213;-26
2023/12/17 03:42:18;;;;;;;7.33;6.20;;;;;;;;;;5010368;28;20221;-28
2023/12/17 03:44:46;;;;;;;8.33;5.57;;;;;;;;;;5006611;28;20350;-29
2023/12/17 03:47:13;;;;;;;7.07;5.33;;;;;;;;;;5011384;28;20540;-27
2023/12/17 03:49:41;;;;;;;5.90;5.30;;;;;;;;;;5010992;28;20235;-27
2023/12/17 03:52:08;;;;;;;6.90;4.93;;;;;;;;;;5000745;28;20208;-27
2023/12/17 03:54:36;;;;;;;8.73;5.67;;;;;;;;;;5013289;28;20226;-28
2023/12/17 03:57:03;;;;;;;6.77;5.77;;;;;;;;;;5020800;28;20207;-28
2023/12/17 03:59:30;;;;;;;8.60;5.53;;;;;;;;;;5012621;28;20212;-28
2023/12/17 04:02:00;;;;;;;9.10;6.03;;;;;;;;;;5000854;28;20214;-27
2023/12/17 04:04:27;;;;;;;8.97;5.17;;;;;;;;;;5027329;28;20223;-28
2023/12/17 04:06:55;;;;;;;9.13;5.63;;;;;;;;;;4992850;28;20199;-29
2023/12/17 04:09:22;;;;;;;6.83;5.47;;;;;;;;;;5012249;28;20230;-27
2023/12/17 04:11:49;;;;;;;7.13;5.40;;;;;;;;;;5006274;28;20207;-27
2023/12/17 04:14:16;;;;;;;6.90;5.97;;;;;;;;;;5003397;28;20223;-31
2023/12/17 04:16:43;;;;;;;9.03;5.50;;;;;;;;;;5013849;28;20211;-27
2023/12/17 04:19:11;;;;;;;6.33;5.10;;;;;;;;;;5016820;28;20215;-30
2023/12/17 04:21:38;;;;;;;7.33;5.37;;;;;;;;;;5001588;28;20207;-27
2023/12/17 04:24:06;;;;;;;9.17;5.60;;;;;;;;;;5017063;28;20241;-26
2023/12/17 04:26:34;;;;;;;8.80;6.17;;;;;;;;;;5018017;28;20214;-26
2023/12/17 04:29:01;;;;;;;8.47;5.40;;;;;;;;;;5016187;28;20234;-29
2023/12/17 04:31:28;;;;;;;8.80;5.83;;;;;;;;;;5011761;28;20223;-25
2023/12/17 04:33:55;;;;;;;9.10;6.13;;;;;;;;;;5018558;28;20720;-27
2023/12/17 04:36:22;;;;;;;8.07;5.80;;;;;;;;;;5003894;28;20210;-27
2023/12/17 04:38:49;;;;;;;8.53;5.90;;;;;;;;;;5002582;28;20222;-28
2023/12/17 04:41:18;;;;;;;8.23;6.37;;;;;;;;;;5014586;28;20211;-28
2023/12/17 04:43:45;;;;;;;8.70;6.13;;;;;;;;;;5016354;28;20217;-27
2023/12/17 04:46:12;;;;;;;8.80;6.37;;;;;;;;;;5003632;28;20207;-28
2023/12/17 04:48:39;;;;;;;7.83;5.93;;;;;;;;;;5017310;28;20206;-27
2023/12/17 04:51:07;;;;;;;6.67;5.40;;;;;;;;;;5002484;28;20223;-26
2023/12/17 04:53:34;;;;;;;10.43;6.87;;;;;;;;;;5008981;28;20297;-28
2023/12/17 04:56:01;;;;;;;7.67;5.90;;;;;;;;;;5012526;28;20211;-29
2023/12/17 04:58:29;;;;;;;9.73;6.20;;;;;;;;;;5014807;28;20217;-28
2023/12/17 05:00:59;;;;;;;9.10;6.40;;;;;;;;;;5008324;28;20214;-28
2023/12/17 05:03:26;;;;;;;8.00;5.97;;;;;;;;;;5002275;28;20219;-28
2023/12/17 05:05:53;;;;;;;6.70;5.80;;;;;;;;;;5001819;28;20232;-26
2023/12/17 05:08:22;;;;;;;6.70;5.47;;;;;;;;;;5008218;28;20247;-25
2023/12/17 05:10:49;;;;;;;11.23;5.90;;;;;;;;;;5027899;28;20223;-28
2023/12/17 05:13:16;;;;;;;5.50;4.93;;;;;;;;;;5021572;28;20213;-27
2023/12/17 05:15:45;;;;;;;7.53;5.50;;;;;;;;;;5006602;28;20242;-28
2023/12/17 05:18:12;;;;;;;7.37;5.33;;;;;;;;;;5016379;28;20203;-26
2023/12/17 05:20:39;;;;;;;7.33;5.30;;;;;;;;;;5003274;28;20203;-29
2023/12/17 05:23:07;;;;;;;5.83;4.70;;;;;;;;;;5002089;28;20211;-27
2023/12/17 05:25:34;;;;;;;5.63;4.87;;;;;;;;;;5018327;28;20230;-28
2023/12/17 05:28:01;;;;;;;8.77;6.03;;;;;;;;;;5015902;28;20207;-26
2023/12/17 05:30:28;;;;;;;6.27;5.23;;;;;;;;;;4998350;28;20232;-27
2023/12/17 05:32:56;;;;;;;6.80;4.90;;;;;;;;;;5000761;28;20222;-26
2023/12/17 05:35:23;;;;;;;7.67;5.23;;;;;;;;;;5000739;28;20239;-28
2023/12/17 05:37:50;;;;;;;6.17;5.07;;;;;;;;;;5008797;28;20218;-29
2023/12/17 05:40:17;;;;;;;7.27;5.60;;;;;;;;;;5017991;28;20219;-26
2023/12/17 05:42:44;;;;;;;7.20;4.93;;;;;;;;;;5018133;28;20210;-28
2023/12/17 05:45:12;;;;;;;6.57;4.90;;;;;;;;;;5004763;28;20264;-26
2023/12/17 05:47:40;;;;;;;6.20;4.63;;;;;;;;;;5003974;28;20211;-26
2023/12/17 05:50:10;;;;;;;6.20;5.17;;;;;;;;;;5013128;28;20227;-26
2023/12/17 05:52:37;;;;;;;6.73;5.83;;;;;;;;;;4995381;28;20240;-28
2023/12/17 05:55:05;;;;;;;7.37;5.23;;;;;;;;;;5011058;28;20239;-26
2023/12/17 05:57:33;;;;;;;8.97;5.80;;;;;;;;;;5010576;28;20222;-26
2023/12/17 06:00:00;;;;;;;6.53;4.97;;;;;;;;;;5003300;28;20209;-28
2023/12/17 06:02:27;;;;;;;9.70;6.00;;;;;;;;;;5017332;28;20207;-27
2023/12/17 06:04:54;;;;;;;6.33;5.53;;;;;;;;;;5013887;28;20250;-31
2023/12/17 06:07:23;;;;;;;7.97;6.03;;;;;;;;;;5000362;28;20216;-27
2023/12/17 06:09:50;;;;;;;8.87;5.80;;;;;;;;;;5010910;28;20238;-27
2023/12/17 06:12:17;;;;;;;7.30;5.63;;;;;;;;;;5018465;28;20215;-27
2023/12/17 06:14:44;;;;;;;8.57;5.67;;;;;;;;;;5006536;28;20697;-29
2023/12/17 06:17:12;;;;;;;6.10;4.93;;;;;;;;;;5014527;28;20253;-27
2023/12/17 06:19:40;;;;;;;7.77;5.63;;;;;;;;;;5024996;28;20207;-28
2023/12/17 06:22:11;;;;;;;7.73;5.40;;;;;;;;;;5009512;28;20684;-28
2023/12/17 06:24:40;;;;;;;8.10;5.70;;;;;;;;;;5016808;28;20238;-27
2023/12/17 06:27:07;;;;;;;8.57;5.87;;;;;;;;;;5012088;28;20222;-26
2023/12/17 06:29:34;;;;;;;8.20;6.00;;;;;;;;;;5017469;28;20211;-27
2023/12/17 06:32:04;;;;;;;10.23;6.50;;;;;;;;;;5005134;28;20231;-27
2023/12/17 06:34:31;;;;;;;8.23;5.50;;;;;;;;;;5006686;28;20227;-27
2023/12/17 06:36:58;;;;;;;6.70;5.77;;;;;;;;;;4990842;28;20579;-29
2023/12/17 06:39:25;;;;;;;8.47;5.97;;;;;;;;;;5017434;28;20677;-29
2023/12/17 06:41:54;;;;;;;6.67;4.67;;;;;;;;;;5014960;28;20647;-26
2023/12/17 06:44:21;;;;;;;6.33;4.97;;;;;;;;;;5006600;28;20251;-27
2023/12/17 06:46:48;;;;;;;7.50;5.60;;;;;;;;;;5015558;28;20236;-28
2023/12/17 06:49:15;;;;;;;7.63;5.97;;;;;;;;;;5027202;28;20211;-27
2023/12/17 06:51:42;;;;;;;7.53;6.07;;;;;;;;;;5005824;28;20227;-28
2023/12/17 06:54:09;;;;;;;8.33;5.93;;;;;;;;;;5011178;28;20242;-28
2023/12/17 06:56:36;;;;;;;8.67;6.10;;;;;;;;;;5011687;28;20208;-27
2023/12/17 06:59:05;;;;;;;12.13;7.27;;;;;;;;;;5015235;28;20211;-27
2023/12/17 07:01:32;;;;;;;7.63;5.70;;;;;;;;;;5021825;28;20203;-28
2023/12/17 07:04:00;;;;;;;6.43;5.17;;;;;;;;;;5020290;28;20243;-27
2023/12/17 07:06:27;;;;;;;9.17;5.93;;;;;;;;;;5000697;28;20211;-28
2023/12/17 07:08:54;;;;;;;6.57;5.40;;;;;;;;;;5016028;28;20215;-27
2023/12/17 07:11:22;;;;;;;6.37;5.17;;;;;;;;;;5019106;28;20233;-27
2023/12/17 07:13:50;;;;;;;7.90;5.30;;;;;;;;;;5008370;28;20203;-30
2023/12/17 07:16:24;;;;;;;7.93;5.73;;;;;;;;;;5009212;28;20207;-28
2023/12/17 07:18:51;;;;;;;7.93;6.00;;;;;;;;;;5011472;28;20708;-29
2023/12/17 07:21:19;;;;;;;8.07;6.10;;;;;;;;;;5003445;28;20846;-26
2023/12/17 07:23:46;;;;;;;9.37;6.07;;;;;;;;;;5019783;28;20653;-26
2023/12/17 07:26:14;;;;;;;8.33;6.20;;;;;;;;;;5027762;28;20582;-26
2023/12/17 07:28:41;;;;;;;10.43;6.60;;;;;;;;;;5007681;28;20231;-28
2023/12/17 07:31:08;;;;;;;8.83;6.33;;;;;;;;;;5006900;28;20222;-28
2023/12/17 07:33:36;;;;;;;9.70;6.10;;;;;;;;;;5028947;28;20297;-31
2023/12/17 07:36:04;;;;;;;9.47;6.70;;;;;;;;;;5012731;28;20206;-26
2023/12/17 07:38:31;;;;;;;8.83;6.17;;;;;;;;;;5014867;28;20210;-29
2023/12/17 07:40:58;;;;;;;10.37;5.70;;;;;;;;;;5017791;28;20234;-28
2023/12/17 07:43:25;;;;;;;8.03;6.20;;;;;;;;;;5015514;28;20211;-27
2023/12/17 07:45:52;;;;;;;8.50;6.97;;;;;;;;;;5009174;28;20231;-28
2023/12/17 07:48:19;;;;;;;7.60;5.33;;;;;;;;;;5014545;28;20218;-28
2023/12/17 07:50:47;;;;;;;6.90;5.83;;;;;;;;;;5016892;28;20227;-29
2023/12/17 07:53:14;;;;;;;10.10;6.17;;;;;;;;;;4998492;28;20210;-27
2023/12/17 07:55:42;;;;;;;9.03;5.73;;;;;;;;;;5011588;28;20238;-26
2023/12/17 07:58:09;;;;;;;7.77;6.00;;;;;;;;;;5011205;28;20208;-29
2023/12/17 08:00:36;;;;;;;9.03;6.00;;;;;;;;;;5003845;28;20215;-28
2023/12/17 08:03:03;;;;;;;7.10;5.63;;;;;;;;;;5024530;28;20324;-26
2023/12/17 08:05:30;;;;;;;8.80;5.93;;;;;;;;;;5005737;28;20234;-28
2023/12/17 08:07:59;;;;;;;6.73;5.27;;;;;;;;;;5010419;28;20216;-28
2023/12/17 08:10:26;;;;;;;7.77;5.90;;;;;;;;;;5021033;28;20241;-28
2023/12/17 08:12:53;;;;;;;7.67;5.93;;;;;;;;;;4998820;28;20318;-29
2023/12/17 08:15:20;;;;;;;8.47;5.83;;;;;;;;;;5006295;28;20231;-27
2023/12/17 08:17:47;;;;;;;8.73;5.83;;;;;;;;;;5008783;28;20222;-26
2023/12/17 08:20:14;;;;;;;7.43;6.00;;;;;;;;;;5020762;28;20208;-28
2023/12/17 08:22:42;;;;;;;6.53;5.80;;;;;;;;;;5019742;28;20214;-26
2023/12/17 08:25:11;;;;;;;8.67;6.43;;;;;;;;;;5013131;28;20231;-27
2023/12/17 08:27:38;;;;;;;7.87;5.73;;;;;;;;;;5019328;28;20241;-27
2023/12/17 08:30:06;;;;;;;6.97;5.80;;;;;;;;;;5014574;28;20216;-28
2023/12/17 08:32:33;;;;;;;7.23;5.50;;;;;;;;;;5004821;28;20218;-28
2023/12/17 08:35:16;;;;;;;9.50;6.30;;;;;;;;;;5014557;28;20219;-28
2023/12/17 08:37:43;;;;;;;5.87;5.00;;;;;;;;;;5008097;28;20204;-29
2023/12/17 08:40:14;;;;;;;7.07;5.57;;;;;;;;;;5019436;28;20234;-27
2023/12/17 08:42:41;;;;;;;8.00;6.33;;;;;;;;;;5011381;28;20300;-27
2023/12/17 08:45:09;;;;;;;7.53;6.27;;;;;;;;;;5009150;28;20701;-29
2023/12/17 08:47:36;;;;;;;6.40;5.77;;;;;;;;;;5023768;28;20195;-28
2023/12/17 08:50:03;;;;;;;7.70;5.93;;;;;;;;;;5015002;28;20216;-28
2023/12/17 08:52:32;;;;;;;6.93;6.03;;;;;;;;;;5008987;28;20199;-27
2023/12/17 08:54:59;;;;;;;7.90;6.60;;;;;;;;;;5026051;28;20235;-26
2023/12/17 08:57:28;;;;;;;8.00;6.33;;;;;;;;;;5026896;28;20210;-26
2023/12/17 08:59:55;;;;;;;6.83;6.13;;;;;;;;;;5007804;28;20217;-28
2023/12/17 09:02:22;;;;;;;7.47;6.00;;;;;;;;;;5017490;28;20210;-29
2023/12/17 09:04:51;;;;;;;10.00;6.43;;;;;;;;;;5021044;28;20230;-27
2023/12/17 09:07:18;;;;;;;15.10;10.40;;;;;;;;;;5025088;28;20205;-28
2023/12/17 09:09:44;;;;;;;13.53;9.70;;;;;;;;;;5018822;28;20217;-27
2023/12/17 09:12:11;;;;;;;11.07;8.30;;;;;;;;;;5016971;28;20222;-29
2023/12/17 09:14:40;;;;;;;9.00;7.27;;;;;;;;;;5009372;28;20238;-26
2023/12/17 09:17:07;;;;;;;9.90;7.10;;;;;;;;;;5012008;28;20217;-27
2023/12/17 09:19:34;;;;;;;10.77;7.63;;;;;;;;;;5020348;28;20211;-27
2023/12/17 09:22:01;;;;;;;12.67;8.17;;;;;;;;;;5008812;28;20562;-27
2023/12/17 09:24:28;;;;;;;10.80;7.60;;;;;;;;;;5014997;28;20231;-27
2023/12/17 09:26:55;;;;;;;8.93;7.27;;;;;;;;;;5023403;28;20198;-28
2023/12/17 09:29:22;;;;;;;9.10;7.20;;;;;;;;;;5009685;28;20203;-29
2023/12/17 09:31:51;;;;;;;9.90;7.37;;;;;;;;;;5024611;28;20581;-26
2023/12/17 09:34:19;;;;;;;11.80;7.20;;;;;;;;;;5020578;28;20219;-29
2023/12/17 09:36:46;;;;;;;22.70;20.53;;;;;;;;;;5014473;28;20260;-29
2023/12/17 09:39:13;;;;;;;17.17;15.37;;;;;;;;;;5025295;28;20218;-28
2023/12/17 09:41:41;;;;;;;23.27;21.07;;;;;;;;;;5026500;28;20199;-28
2023/12/17 09:44:09;;;;;;;14.70;13.23;;;;;;;;;;5014070;28;20227;-27
2023/12/17 09:46:36;;;;;;;12.80;11.47;;;;;;;;;;5006552;28;20250;-28
2023/12/17 09:49:05;;;;;;;17.40;15.50;;;;;;;;;;5022399;28;20207;-29
2023/12/17 09:51:34;;;;;;;14.87;13.37;;;;;;;;;;5003443;28;20220;-28
2023/12/17 09:54:01;;;;;;;14.77;13.17;;;;;;;;;;5029248;28;20229;-27
2023/12/17 09:56:28;;;;;;;12.90;9.53;;;;;;;;;;5021983;28;20836;-29
2023/12/17 09:58:55;;;;;;;13.27;9.67;;;;;;;;;;5022242;28;20206;-28
2023/12/17 10:01:22;;;;;;;12.20;10.00;;;;;;;;;;5000048;28;20215;-28
2023/12/17 10:03:50;;;;;;;12.33;11.00;;;;;;;;;;5014507;28;20207;-29
2023/12/17 10:06:20;;;;;;;11.80;9.70;;;;;;;;;;5004466;28;20297;-27
2023/12/17 10:08:47;;;;;;;14.47;11.73;;;;;;;;;;5013608;28;20207;-27
2023/12/17 10:11:15;;;;;;;11.20;9.40;;;;;;;;;;5023558;28;20230;-27
2023/12/17 10:13:42;;;;;;;12.17;10.43;;;;;;;;;;5018543;28;20199;-28
2023/12/17 10:16:09;;;;;;;11.60;10.40;;;;;;;;;;5005982;28;20209;-29
2023/12/17 10:18:36;;;;;;;10.40;8.87;;;;;;;;;;5020219;28;20202;-28
2023/12/17 10:21:04;;;;;;;10.63;9.53;;;;;;;;;;5015659;28;20290;-27
2023/12/17 10:23:46;;;;;;;10.57;9.47;;;;;;;;;;5025219;28;20210;-27
2023/12/17 10:26:13;;;;;;;10.77;9.67;;;;;;;;;;5022544;28;20213;-28
2023/12/17 10:28:43;;;;;;;9.27;8.37;;;;;;;;;;5007267;28;20203;-26
2023/12/17 10:31:11;;;;;;;10.33;8.40;;;;;;;;;;5008142;28;20224;-28
2023/12/17 10:33:40;;;;;;;9.53;8.30;;;;;;;;;;5016672;28;20203;-26
2023/12/17 10:36:07;;;;;;;13.17;9.00;;;;;;;;;;5007455;28;20212;-28
2023/12/17 10:38:35;;;;;;;10.10;7.17;;;;;;;;;;5018295;28;20208;-26
2023/12/17 10:41:04;;;;;;;10.93;7.03;;;;;;;;;;5025008;28;20217;-27
2023/12/17 10:43:32;;;;;;;9.23;7.43;;;;;;;;;;5020270;28;20204;-28
2023/12/17 10:46:01;;;;;;;10.40;6.93;;;;;;;;;;5009280;28;20226;-29
2023/12/17 10:48:28;;;;;;;9.17;7.27;;;;;;;;;;5012697;28;20199;-27
2023/12/17 10:50:56;;;;;;;8.53;6.90;;;;;;;;;;5004227;28;20215;-29
2023/12/17 10:53:23;;;;;;;8.60;6.93;;;;;;;;;;5021626;28;20199;-27
2023/12/17 10:55:51;;;;;;;8.47;6.20;;;;;;;;;;5014180;28;20219;-29
2023/12/17 10:58:21;;;;;;;7.20;6.50;;;;;;;;;;5008251;28;20218;-29
2023/12/17 11:00:48;;;;;;;9.40;6.53;;;;;;;;;;5013940;28;20204;-27
2023/12/17 11:03:16;;;;;;;7.57;6.77;;;;;;;;;;5030075;28;20210;-28
2023/12/17 11:05:55;;;;;;;7.40;6.03;;;;;;;;;;5018184;28;20231;-27
2023/12/17 11:08:23;;;;;;;9.40;6.50;;;;;;;;;;5030354;28;20206;-28
2023/12/17 11:10:50;;;;;;;8.23;6.70;;;;;;;;;;5016820;28;20200;-27
2023/12/17 11:13:21;;;;;;;8.30;6.63;;;;;;;;;;5019983;28;20222;-27
2023/12/17 11:15:50;;;;;;;6.97;6.27;;;;;;;;;;5000964;28;20261;-27
2023/12/17 11:18:17;;;;;;;8.70;6.23;;;;;;;;;;5020003;28;20211;-27
2023/12/17 11:20:46;;;;;;;10.13;6.97;;;;;;;;;;5001676;28;20309;-28
2023/12/17 11:23:15;;;;;;;6.63;5.37;;;;;;;;;;5012372;28;20199;-29
2023/12/17 11:25:42;;;;;;;7.07;5.87;;;;;;;;;;5024402;28;20223;-27
2023/12/17 11:28:14;;;;;;;6.87;5.63;;;;;;;;;;5027630;28;20206;-27
2023/12/17 11:30:41;;;;;;;9.40;6.77;;;;;;;;;;5008045;28;20222;-26
2023/12/17 11:33:12;;;;;;;6.03;5.43;;;;;;;;;;5003019;28;20223;-26
2023/12/17 11:35:39;;;;;;;10.17;6.27;;;;;;;;;;5014674;28;20223;-28
2023/12/17 11:38:06;;;;;;;8.27;6.10;;;;;;;;;;5010645;28;20207;-28
2023/12/17 11:40:35;;;;;;;7.47;6.37;;;;;;;;;;5021604;28;20229;-28
2023/12/17 11:43:05;;;;;;;7.43;5.97;;;;;;;;;;5014357;28;20211;-27
2023/12/17 11:45:36;;;;;;;7.47;5.83;;;;;;;;;;5006330;28;20230;-29
2023/12/17 11:48:07;;;;;;;7.13;5.80;;;;;;;;;;5028796;28;20211;-27
2023/12/17 11:50:42;;;;;;;6.90;5.23;;;;;;;;;;5001762;28;20227;-27
2023/12/17 11:53:09;;;;;;;8.10;5.70;;;;;;;;;;5008627;28;20235;-29
2023/12/17 11:55:46;;;;;;;7.13;6.10;;;;;;;;;;5024240;28;20256;-26
2023/12/17 11:58:15;;;;;;;8.30;6.57;;;;;;;;;;5016019;28;20202;-27
2023/12/17 12:00:42;;;;;;;7.13;6.00;;;;;;;;;;5012852;28;20207;-27
2023/12/17 12:03:10;;;;;;;8.40;6.43;;;;;;;;;;5026849;28;20215;-26
2023/12/17 12:05:37;;;;;;;8.30;6.57;;;;;;;;;;5010510;28;20227;-28
2023/12/17 12:08:06;;;;;;;7.73;6.03;;;;;;;;;;5015651;28;20211;-27
2023/12/17 12:10:34;;;;;;;9.17;6.60;;;;;;;;;;5012668;28;20207;-29
2023/12/17 12:13:01;;;;;;;7.33;5.80;;;;;;;;;;5019991;28;20253;-28
2023/12/17 12:15:29;;;;;;;7.80;6.07;;;;;;;;;;4998027;28;20281;-26
2023/12/17 12:17:56;;;;;;;8.93;6.60;;;;;;;;;;5019142;28;20203;-27
2023/12/17 12:20:34;;;;;;;7.53;6.00;;;;;;;;;;5007336;28;20218;-26
2023/12/17 12:23:01;;;;;;;6.20;5.60;;;;;;;;;;5019289;28;20195;-26
2023/12/17 12:25:29;;;;;;;7.93;6.60;;;;;;;;;;5018920;28;20225;-26
2023/12/17 12:27:56;;;;;;;7.13;5.80;;;;;;;;;;5019476;28;20214;-26
2023/12/17 12:30:29;;;;;;;6.63;4.90;;;;;;;;;;5026391;28;20207;-29
2023/12/17 12:32:56;;;;;;;7.40;5.80;;;;;;;;;;5017524;28;20223;-26
2023/12/17 12:35:29;;;;;;;5.77;5.20;;;;;;;;;;5015468;28;20285;-28
2023/12/17 12:37:57;;;;;;;8.17;6.50;;;;;;;;;;5015649;28;20195;-28
2023/12/17 12:40:31;;;;;;;7.50;6.53;;;;;;;;;;5029608;28;20730;-27
2023/12/17 12:43:02;;;;;;;7.93;6.53;;;;;;;;;;5023344;28;20195;-26
2023/12/17 12:45:29;;;;;;;7.90;6.37;;;;;;;;;;5004711;28;20219;-28
2023/12/17 12:47:57;;;;;;;8.07;6.17;;;;;;;;;;5020510;28;20202;-27
2023/12/17 12:50:24;;;;;;;6.93;6.10;;;;;;;;;;5011889;28;20291;-29
2023/12/17 12:52:51;;;;;;;7.13;6.03;;;;;;;;;;5017799;28;20226;-29
2023/12/17 12:55:18;;;;;;;7.03;6.30;;;;;;;;;;5034846;28;20230;-29
2023/12/17 12:57:46;;;;;;;6.90;5.10;;;;;;;;;;5030534;28;20207;-29
2023/12/17 13:00:16;;;;;;;7.47;5.33;;;;;;;;;;5011632;28;20222;-27
2023/12/17 13:02:43;;;;;;;5.57;4.93;;;;;;;;;;5018493;28;20249;-27
2023/12/17 13:05:10;;;;;;;6.27;5.07;;;;;;;;;;5019897;28;20589;-28
2023/12/17 13:07:44;;;;;;;6.17;4.80;;;;;;;;;;5008670;28;20196;-28
2023/12/17 13:10:18;;;;;;;6.07;4.50;;;;;;;;;;5022958;28;20520;-29
2023/12/17 13:12:46;;;;;;;5.20;4.67;;;;;;;;;;5026196;28;20211;-30
2023/12/17 13:15:14;;;;;;;7.53;6.33;;;;;;;;;;5005874;28;20260;-29
2023/12/17 13:17:41;;;;;;;6.70;5.33;;;;;;;;;;5019291;28;20218;-28
2023/12/17 13:20:09;;;;;;;6.37;5.20;;;;;;;;;;5017525;28;20207;-25
2023/12/17 13:22:36;;;;;;;5.60;4.33;;;;;;;;;;5009138;28;20205;-28
2023/12/17 13:25:04;;;;;;;6.33;5.27;;;;;;;;;;5033996;28;20462;-26
2023/12/17 13:27:31;;;;;;;6.13;5.30;;;;;;;;;;5017585;28;20198;-29
2023/12/17 13:29:59;;;;;;;8.03;5.50;;;;;;;;;;5015033;28;20322;-29
2023/12/17 13:32:26;;;;;;;7.00;5.37;;;;;;;;;;5017949;28;20321;-29
2023/12/17 13:34:54;;;;;;;7.33;5.10;;;;;;;;;;5016545;28;20218;-27
2023/12/17 13:37:21;;;;;;;6.57;5.10;;;;;;;;;;5005043;28;20214;-28
2023/12/17 13:39:48;;;;;;;5.17;4.67;;;;;;;;;;5025365;28;20751;-26
2023/12/17 13:42:16;;;;;;;5.90;5.30;;;;;;;;;;5029521;28;20206;-25
2023/12/17 13:44:43;;;;;;;7.10;5.53;;;;;;;;;;5007071;28;20262;-26
2023/12/17 13:47:11;;;;;;;6.13;5.07;;;;;;;;;;5002879;28;20220;-27
2023/12/17 13:49:39;;;;;;;8.17;5.50;;;;;;;;;;5014737;28;20206;-26
2023/12/17 13:52:07;;;;;;;6.47;5.10;;;;;;;;;;5003310;28;20227;-29
2023/12/17 13:54:34;;;;;;;6.70;5.20;;;;;;;;;;5012112;28;20227;-26
2023/12/17 13:57:02;;;;;;;9.23;5.77;;;;;;;;;;5020941;28;20207;-26
2023/12/17 13:59:29;;;;;;;6.97;6.07;;;;;;;;;;5002325;28;20219;-28
2023/12/17 14:01:56;;;;;;;6.30;5.27;;;;;;;;;;5026830;28;20212;-26
2023/12/17 14:04:25;;;;;;;7.07;5.50;;;;;;;;;;5014099;28;20235;-28
2023/12/17 14:06:53;;;;;;;6.20;5.00;;;;;;;;;;5007564;28;20214;-26
2023/12/17 14:09:22;;;;;;;6.17;5.57;;;;;;;;;;5013384;28;20211;-27
2023/12/17 14:11:49;;;;;;;7.93;6.07;;;;;;;;;;5020861;28;20203;-25
2023/12/17 14:14:17;;;;;;;7.00;5.83;;;;;;;;;;5007845;28;20319;-27
2023/12/17 14:16:44;;;;;;;7.03;6.10;;;;;;;;;;5014728;28;20218;-27
2023/12/17 14:19:11;;;;;;;6.97;5.63;;;;;;;;;;5012765;28;20204;-27
2023/12/17 14:21:40;;;;;;;6.47;5.80;;;;;;;;;;5005789;28;20206;-26
2023/12/17 14:24:07;;;;;;;8.53;6.27;;;;;;;;;;5011044;28;20219;-27
2023/12/17 14:26:34;;;;;;;8.03;6.47;;;;;;;;;;5019951;28;20227;-28
2023/12/17 14:29:02;;;;;;;7.60;6.03;;;;;;;;;;4999851;28;20208;-28
2023/12/17 14:31:30;;;;;;;8.67;6.50;;;;;;;;;;5009158;28;20226;-29
2023/12/17 14:33:57;;;;;;;9.13;6.47;;;;;;;;;;5010120;28;20281;-27
2023/12/17 14:36:24;;;;;;;7.73;6.37;;;;;;;;;;5003058;28;20208;-27
2023/12/17 14:38:53;;;;;;;8.63;6.47;;;;;;;;;;5012668;28;20207;-29
2023/12/17 14:41:29;;;;;;;6.63;5.63;;;;;;;;;;5021031;28;20211;-27
2023/12/17 14:43:57;;;;;;;6.53;5.83;;;;;;;;;;5008540;28;20227;-26